createdAt,value
2022-12-23T00:03:22.110Z,12.85
2022-12-23T00:08:15.832Z,9.38
2022-12-23T00:13:29.195Z,8.63
2022-12-23T00:18:23.183Z,8.27
2022-12-23T00:23:16.491Z,9.43
2022-12-23T00:28:14.956Z,10.18
2022-12-23T00:33:09.227Z,9.13
2022-12-23T00:38:03.250Z,10.48
2022-12-23T00:42:56.764Z,10.45
2022-12-23T00:48:07.632Z,7.75
2022-12-23T00:53:02.094Z,13.40
2022-12-23T00:57:55.538Z,8.55
2022-12-23T01:03:07.105Z,9.60
2022-12-23T01:08:01.321Z,11.65
2022-12-23T01:12:54.273Z,9.20
2022-12-23T01:17:47.848Z,9.10
2022-12-23T01:22:41.519Z,10.70
2022-12-23T01:27:35.349Z,8.65
2022-12-23T01:32:28.930Z,9.10
2022-12-23T01:37:22.485Z,8.80
2022-12-23T01:42:36.470Z,7.35
2022-12-23T01:47:41.002Z,8.85
2022-12-23T01:53:17.068Z,8.18
2022-12-23T01:58:18.772Z,9.63
2022-12-23T02:03:43.382Z,10.15
2022-12-23T02:08:55.642Z,9.27
2022-12-23T02:14:25.282Z,10.40
2022-12-23T02:19:38.124Z,8.38
2022-12-23T02:24:36.851Z,8.85
2022-12-23T02:29:33.039Z,9.10
2022-12-23T02:35:05.555Z,8.98
2022-12-23T02:40:11.365Z,7.35
2022-12-23T02:45:13.266Z,7.93
2022-12-23T02:50:18.051Z,9.18
2022-12-23T02:55:17.083Z,7.43
2022-12-23T03:00:12.585Z,8.10
2022-12-23T03:05:05.854Z,6.32
2022-12-23T03:10:23.660Z,9.82
2022-12-23T03:15:20.178Z,8.27
2022-12-23T03:20:55.078Z,7.93
2022-12-23T03:26:24.175Z,7.22
2022-12-23T03:31:23.816Z,8.30
2022-12-23T03:36:39.077Z,7.45
2022-12-23T03:41:36.224Z,6.88
2022-12-23T03:46:36.023Z,7.20
2022-12-23T03:51:48.726Z,6.95
2022-12-23T03:56:50.283Z,6.75
2022-12-23T04:06:50.638Z,7.78
2022-12-23T04:11:44.044Z,6.95
2022-12-23T04:16:38.223Z,9.48
2022-12-23T04:21:31.804Z,7.03
2022-12-23T04:26:25.329Z,6.78
2022-12-23T04:31:18.833Z,8.13
2022-12-23T04:36:12.072Z,7.07
2022-12-23T04:41:05.936Z,6.10
2022-12-23T04:46:00.238Z,5.78
2022-12-23T04:50:53.892Z,6.25
2022-12-23T04:55:50.465Z,6.68
2022-12-23T05:00:44.349Z,9.82
2022-12-23T05:05:43.598Z,8.52
2022-12-23T05:10:36.712Z,6.80
2022-12-23T05:15:33.472Z,6.25
2022-12-23T05:20:26.030Z,5.70
2022-12-23T05:25:19.591Z,6.82
2022-12-23T05:30:13.573Z,6.82
2022-12-23T05:35:08.118Z,6.80
2022-12-23T05:40:00.703Z,6.13
2022-12-23T05:44:54.236Z,5.82
2022-12-23T05:49:48.344Z,7.22
2022-12-23T05:54:42.265Z,5.13
2022-12-23T05:59:36.093Z,6.35
2022-12-23T06:04:29.871Z,7.00
2022-12-23T06:09:22.906Z,6.13
2022-12-23T06:14:28.373Z,5.63
2022-12-23T06:19:22.312Z,5.20
2022-12-23T06:24:17.605Z,5.80
2022-12-23T06:29:11.787Z,4.72
2022-12-23T06:34:06.031Z,5.43
2022-12-23T06:38:58.721Z,5.88
2022-12-23T06:43:54.395Z,4.95
2022-12-23T06:48:49.051Z,5.25
2022-12-23T06:53:43.433Z,5.72
2022-12-23T06:58:36.961Z,5.85
2022-12-23T07:03:30.781Z,8.50
2022-12-23T07:08:24.434Z,6.53
2022-12-23T07:13:17.898Z,5.78
2022-12-23T07:18:11.869Z,5.53
2022-12-23T07:23:05.759Z,6.90
2022-12-23T07:27:59.631Z,6.72
2022-12-23T07:32:53.650Z,15.70
2022-12-23T07:37:51.529Z,7.15
2022-12-23T07:42:46.746Z,7.50
2022-12-23T07:47:41.100Z,9.38
2022-12-23T07:52:35.721Z,4.78
2022-12-23T07:57:29.427Z,7.00
2022-12-23T08:02:25.970Z,7.97
2022-12-23T08:07:19.896Z,6.05
2022-12-23T08:12:14.197Z,7.00
2022-12-23T08:17:07.574Z,7.10
2022-12-23T08:22:02.115Z,7.35
2022-12-23T08:26:55.979Z,9.75
2022-12-23T08:31:51.209Z,11.13
2022-12-23T08:36:44.971Z,8.52
2022-12-23T08:41:41.108Z,12.32
2022-12-23T08:46:35.143Z,9.15
2022-12-23T08:51:28.916Z,9.93
2022-12-23T08:56:24.152Z,8.48
2022-12-23T09:01:21.005Z,9.20
2022-12-23T09:06:28.276Z,8.35
2022-12-23T09:11:24.323Z,7.85
2022-12-23T09:16:18.808Z,7.78
2022-12-23T09:21:18.416Z,9.68
2022-12-23T09:26:12.295Z,10.30
2022-12-23T09:31:13.334Z,11.30
2022-12-23T09:36:07.266Z,10.57
2022-12-23T09:41:12.968Z,16.23
2022-12-23T09:46:25.674Z,23.52
2022-12-23T09:51:22.790Z,21.83
2022-12-23T09:56:28.400Z,23.40
2022-12-23T10:01:44.788Z,24.95
2022-12-23T10:06:41.525Z,30.20
2022-12-23T10:11:38.516Z,36.38
2022-12-23T10:16:38.787Z,35.47
2022-12-23T10:21:47.549Z,34.67
2022-12-23T10:27:03.208Z,33.00
2022-12-23T10:32:17.702Z,34.42
2022-12-23T10:37:28.815Z,34.13
2022-12-23T10:42:37.711Z,38.05
2022-12-23T10:47:48.201Z,29.38
2022-12-23T11:02:51.175Z,30.15
2022-12-23T11:07:48.132Z,29.47
2022-12-23T11:12:49.823Z,31.25
2022-12-23T11:17:43.508Z,23.73
2022-12-23T11:22:37.189Z,24.85
2022-12-23T11:27:30.422Z,21.45
2022-12-23T11:32:27.003Z,21.90
2022-12-23T11:37:43.948Z,21.95
2022-12-23T11:42:37.777Z,22.45
2022-12-23T11:47:42.089Z,20.10
2022-12-23T11:52:35.365Z,19.27
2022-12-23T11:57:34.445Z,18.65
2022-12-23T12:02:45.328Z,18.42
2022-12-23T12:07:46.966Z,18.88
2022-12-23T12:12:40.830Z,18.92
2022-12-23T12:17:40.526Z,18.48
2022-12-23T12:22:41.848Z,22.90
2022-12-23T12:27:40.033Z,15.23
2022-12-23T12:32:43.765Z,16.00
2022-12-23T12:37:44.024Z,18.73
2022-12-23T12:42:48.518Z,16.70
2022-12-23T12:48:06.046Z,22.95
2022-12-23T12:53:21.682Z,21.63
2022-12-23T12:58:24.518Z,18.55
2022-12-23T13:03:33.129Z,24.17
2022-12-23T13:09:01.337Z,19.65
2022-12-23T13:14:19.990Z,26.08
2022-12-23T13:19:31.838Z,20.67
2022-12-23T13:25:03.993Z,17.83
2022-12-23T13:30:24.119Z,16.27
2022-12-23T13:35:41.504Z,17.45
2022-12-23T13:40:44.508Z,25.98
2022-12-23T13:45:40.991Z,25.25
2022-12-23T13:50:43.597Z,24.77
2022-12-23T13:55:45.841Z,27.20
2022-12-23T14:00:41.590Z,23.63
2022-12-23T14:05:45.667Z,21.58
2022-12-23T14:10:40.233Z,20.35
2022-12-23T14:15:44.232Z,23.20
2022-12-23T14:21:11.117Z,21.83
2022-12-23T14:26:34.896Z,20.73
2022-12-23T14:31:31.280Z,18.38
2022-12-23T14:36:27.166Z,21.85
2022-12-23T14:41:24.937Z,27.23
2022-12-23T14:46:35.700Z,23.08
2022-12-23T14:51:38.697Z,17.00
2022-12-23T14:56:43.715Z,17.48
2022-12-23T15:01:43.809Z,19.60
2022-12-23T15:06:39.785Z,18.73
2022-12-23T15:11:39.048Z,20.17
2022-12-23T15:16:38.600Z,20.23
2022-12-23T15:21:34.043Z,17.98
2022-12-23T15:26:30.803Z,26.05
2022-12-23T15:31:23.968Z,16.35
2022-12-23T15:36:35.846Z,18.30
2022-12-23T15:41:31.374Z,17.60
2022-12-23T15:46:30.187Z,15.98
2022-12-23T15:51:49.992Z,22.77
2022-12-23T15:56:45.404Z,27.48
2022-12-23T16:01:42.402Z,19.65
2022-12-23T16:06:37.583Z,17.55
2022-12-23T16:11:55.471Z,16.50
2022-12-23T16:16:48.554Z,16.60
2022-12-23T16:21:42.735Z,16.92
2022-12-23T16:26:51.135Z,18.83
2022-12-23T16:31:57.566Z,17.00
2022-12-23T16:36:55.337Z,15.02
2022-12-23T16:41:49.380Z,15.88
2022-12-23T16:46:48.331Z,14.95
2022-12-23T16:51:41.285Z,13.88
2022-12-23T16:56:37.320Z,16.52
2022-12-23T17:01:39.699Z,13.82
2022-12-23T17:06:33.761Z,13.05
2022-12-23T17:11:42.465Z,14.40
2022-12-23T17:16:35.425Z,13.00
2022-12-23T17:21:34.535Z,12.70
2022-12-23T17:26:28.596Z,12.88
2022-12-23T17:31:26.486Z,21.55
2022-12-23T17:36:20.999Z,13.80
2022-12-23T17:41:32.326Z,12.85
2022-12-23T17:46:27.791Z,18.13
2022-12-23T17:51:23.597Z,33.35
2022-12-23T17:56:20.253Z,67.50
2022-12-23T18:01:32.500Z,59.97
2022-12-23T18:06:27.803Z,68.47
2022-12-23T18:11:42.531Z,35.67
2022-12-23T18:16:35.725Z,33.92
2022-12-23T18:21:30.372Z,29.98
2022-12-23T18:26:23.482Z,29.48
2022-12-23T18:31:46.718Z,27.00
2022-12-23T18:36:43.669Z,26.80
2022-12-23T18:41:37.177Z,27.25
2022-12-23T18:46:30.267Z,28.85
2022-12-23T18:51:23.883Z,28.27
2022-12-23T18:56:19.905Z,42.50
2022-12-23T19:01:17.922Z,31.10
2022-12-23T19:06:13.879Z,28.58
2022-12-23T19:11:19.393Z,23.95
2022-12-23T19:16:16.148Z,28.27
2022-12-23T19:21:10.829Z,25.20
2022-12-23T19:26:06.551Z,22.38
2022-12-23T19:31:00.154Z,19.92
2022-12-23T19:35:53.558Z,21.83
2022-12-23T19:40:56.373Z,20.73
2022-12-23T19:46:03.770Z,23.98
2022-12-23T19:51:01.972Z,23.23
2022-12-23T19:56:03.845Z,24.33
2022-12-23T20:01:18.856Z,21.73
2022-12-23T20:06:39.014Z,20.23
2022-12-23T20:11:37.876Z,27.03
2022-12-23T20:16:31.285Z,22.95
2022-12-23T20:21:25.545Z,19.10
2022-12-23T20:26:20.651Z,22.95
2022-12-23T20:31:15.990Z,17.83
2022-12-23T20:36:15.391Z,22.38
2022-12-23T20:41:11.182Z,20.98
2022-12-23T20:46:06.504Z,20.70
2022-12-23T20:51:08.379Z,23.48
2022-12-23T20:56:06.014Z,22.50
2022-12-23T21:01:11.331Z,22.95
2022-12-23T21:06:06.264Z,30.08
2022-12-23T21:11:00.282Z,26.30
2022-12-23T21:15:54.166Z,31.88
2022-12-23T21:20:47.906Z,31.48
2022-12-23T21:25:41.097Z,29.95
2022-12-23T21:30:35.792Z,37.03
2022-12-23T21:35:30.253Z,31.30
2022-12-23T21:40:24.255Z,30.25
2022-12-23T21:45:18.505Z,28.88
2022-12-23T21:50:11.549Z,30.25
2022-12-23T21:55:06.381Z,40.63
2022-12-23T22:00:00.441Z,33.78
2022-12-23T22:04:54.069Z,37.03
2022-12-23T22:09:47.791Z,33.72
2022-12-23T22:14:41.196Z,24.90
2022-12-23T22:19:38.802Z,29.52
2022-12-23T22:24:32.647Z,21.55
2022-12-23T22:29:26.632Z,29.13
2022-12-23T22:34:21.669Z,26.55
2022-12-23T22:39:20.454Z,22.35
2022-12-23T22:44:15.547Z,26.60
2022-12-23T22:49:17.052Z,21.42
2022-12-23T22:54:10.858Z,20.10
2022-12-23T22:59:05.584Z,23.45
2022-12-23T23:04:00.100Z,24.75
2022-12-23T23:08:54.995Z,22.58
2022-12-23T23:13:49.242Z,19.60
2022-12-23T23:18:41.907Z,19.88
2022-12-23T23:23:35.693Z,23.50
2022-12-23T23:28:29.834Z,19.73
2022-12-23T23:33:22.106Z,26.10
2022-12-23T23:38:15.384Z,18.13
2022-12-23T23:43:09.290Z,17.45
2022-12-23T23:48:02.922Z,21.83
2022-12-23T23:52:56.539Z,20.75
2022-12-23T23:57:49.828Z,17.00
